Time;durP1;ratioP1;P1;durP2;ratioP2;P2;SDS_P1;SDS_P2;PMS_P1;PMS_P2;Temp;Humidity;BMP_temperature;BMP_pressure;BME280_temperature;BME280_humidity;BME280_pressure;Samples;Min_cycle;Max_cycle;Signal;HPM_P1;HPM_P2
2022/07/02 00:01:52;;;;;;;5.65;3.20;;;;;;;;;;4997440;28;20030;-81
2022/07/02 00:04:20;;;;;;;5.18;3.30;;;;;;;;;;4978797;28;20025;-82
2022/07/02 00:06:52;;;;;;;5.32;3.50;;;;;;;;;;5011374;28;20029;-81
2022/07/02 00:15:26;;;;;;;5.30;3.20;;;;;;;;;;4981560;28;20033;-80
2022/07/02 00:17:52;;;;;;;4.93;3.35;;;;;;;;;;5003583;28;20481;-81
2022/07/02 00:20:18;;;;;;;5.90;3.50;;;;;;;;;;4992167;28;20033;-81
2022/07/02 00:22:44;;;;;;;5.45;3.50;;;;;;;;;;4996065;28;20037;-82
2022/07/02 00:25:10;;;;;;;6.65;3.78;;;;;;;;;;4997124;28;20408;-81
2022/07/02 00:27:37;;;;;;;5.43;3.47;;;;;;;;;;5001581;28;20407;-82
2022/07/02 00:30:04;;;;;;;5.38;3.63;;;;;;;;;;4985413;28;20041;-82
2022/07/02 00:32:31;;;;;;;4.72;3.15;;;;;;;;;;4995055;28;20048;-81
2022/07/02 00:41:05;;;;;;;5.55;3.42;;;;;;;;;;4997118;28;20416;-81
2022/07/02 00:43:32;;;;;;;5.40;3.28;;;;;;;;;;5001436;28;20030;-80
2022/07/02 00:45:59;;;;;;;5.47;3.42;;;;;;;;;;4993239;28;20030;-81
2022/07/02 00:48:25;;;;;;;6.35;3.15;;;;;;;;;;5015171;28;20076;-80
2022/07/02 00:50:51;;;;;;;5.43;3.05;;;;;;;;;;4999009;28;20480;-80
2022/07/02 00:53:17;;;;;;;5.10;3.00;;;;;;;;;;4994284;28;20049;-81
2022/07/02 00:55:43;;;;;;;5.65;3.33;;;;;;;;;;4997947;28;20033;-79
2022/07/02 00:58:09;;;;;;;6.53;3.13;;;;;;;;;;5014474;28;20104;-81
2022/07/02 01:00:35;;;;;;;5.45;3.53;;;;;;;;;;5012682;28;20030;-80
2022/07/02 01:03:01;;;;;;;5.40;3.40;;;;;;;;;;4999421;28;20033;-81
2022/07/02 01:05:27;;;;;;;5.20;3.08;;;;;;;;;;5002903;28;20163;-81
2022/07/02 01:10:58;;;;;;;6.05;4.05;;;;;;;;;;4992010;28;20038;-81
2022/07/02 01:13:26;;;;;;;5.60;3.60;;;;;;;;;;4965700;28;20027;-80
2022/07/02 01:15:52;;;;;;;5.45;3.15;;;;;;;;;;4982564;28;20065;-81
2022/07/02 01:18:18;;;;;;;6.20;3.80;;;;;;;;;;5010888;28;20022;-80
2022/07/02 01:20:44;;;;;;;6.22;3.75;;;;;;;;;;4986398;28;20169;-81
2022/07/02 01:23:10;;;;;;;5.75;3.72;;;;;;;;;;4992660;28;20689;-81
2022/07/02 01:25:36;;;;;;;5.95;3.92;;;;;;;;;;4993015;28;20135;-80
2022/07/02 01:28:02;;;;;;;7.82;3.97;;;;;;;;;;4992551;28;20370;-80
2022/07/02 01:30:29;;;;;;;6.97;4.15;;;;;;;;;;4994692;28;20026;-80
2022/07/02 01:32:55;;;;;;;5.95;3.95;;;;;;;;;;4994528;28;20026;-80
2022/07/02 01:35:21;;;;;;;6.22;4.15;;;;;;;;;;4997388;28;20053;-81
2022/07/02 01:37:49;;;;;;;6.38;3.95;;;;;;;;;;5017569;28;20033;-81
2022/07/02 01:40:15;;;;;;;5.78;3.88;;;;;;;;;;5017340;28;20109;-81
2022/07/02 01:42:42;;;;;;;6.13;3.97;;;;;;;;;;5001946;28;20105;-80
2022/07/02 01:45:08;;;;;;;6.35;4.25;;;;;;;;;;5000685;28;20030;-81
2022/07/02 01:47:34;;;;;;;7.50;3.95;;;;;;;;;;5015595;28;20042;-79
2022/07/02 01:50:00;;;;;;;5.68;3.83;;;;;;;;;;5016568;28;20057;-80
2022/07/02 01:52:26;;;;;;;5.30;3.50;;;;;;;;;;5004709;28;20065;-80
2022/07/02 01:54:53;;;;;;;6.45;3.50;;;;;;;;;;5001392;28;20061;-80
2022/07/02 01:57:19;;;;;;;5.53;3.20;;;;;;;;;;5001378;28;20025;-81
2022/07/02 01:59:45;;;;;;;4.90;3.00;;;;;;;;;;4996418;28;20058;-81
2022/07/02 02:02:11;;;;;;;5.53;3.15;;;;;;;;;;4994491;28;20031;-80
2022/07/02 02:04:38;;;;;;;5.45;3.05;;;;;;;;;;4999485;28;20038;-80
2022/07/02 02:07:04;;;;;;;4.97;2.92;;;;;;;;;;5009696;28;20052;-80
2022/07/02 02:09:30;;;;;;;5.38;3.20;;;;;;;;;;4997227;28;20022;-81
2022/07/02 02:11:56;;;;;;;5.22;3.03;;;;;;;;;;4994824;28;20026;-81
2022/07/02 02:14:22;;;;;;;4.85;2.90;;;;;;;;;;4984175;28;20299;-80
2022/07/02 02:16:48;;;;;;;5.18;2.60;;;;;;;;;;5002132;28;20036;-80
2022/07/02 02:19:14;;;;;;;4.82;2.67;;;;;;;;;;4997023;28;20026;-81
2022/07/02 02:21:40;;;;;;;4.72;2.45;;;;;;;;;;4996527;28;20057;-81
2022/07/02 02:24:07;;;;;;;4.50;2.50;;;;;;;;;;4996689;28;20026;-81
2022/07/02 02:26:33;;;;;;;4.43;2.42;;;;;;;;;;5009915;28;20027;-81
2022/07/02 02:28:59;;;;;;;5.05;2.65;;;;;;;;;;4996001;28;20476;-80
2022/07/02 02:31:25;;;;;;;5.00;2.63;;;;;;;;;;4995027;28;20038;-80
2022/07/02 02:33:51;;;;;;;4.80;2.42;;;;;;;;;;4996101;28;20022;-81
2022/07/02 02:36:17;;;;;;;4.10;2.60;;;;;;;;;;5009224;28;20052;-81
2022/07/02 02:38:46;;;;;;;4.60;2.67;;;;;;;;;;4995995;28;20113;-80
2022/07/02 02:41:12;;;;;;;4.78;2.42;;;;;;;;;;4995827;28;20041;-80
2022/07/02 02:43:38;;;;;;;4.18;2.35;;;;;;;;;;5006581;28;20041;-82
2022/07/02 02:46:08;;;;;;;5.15;2.58;;;;;;;;;;5015177;28;20137;-80
2022/07/02 02:48:35;;;;;;;4.25;2.40;;;;;;;;;;5016349;28;20415;-81
2022/07/02 02:51:01;;;;;;;6.30;2.47;;;;;;;;;;5002332;28;20034;-81
2022/07/02 02:53:27;;;;;;;5.30;2.58;;;;;;;;;;4993176;28;20030;-81
2022/07/02 02:55:53;;;;;;;4.55;2.38;;;;;;;;;;4997160;28;20539;-81
2022/07/02 02:58:19;;;;;;;4.18;2.40;;;;;;;;;;5007028;28;20041;-80
2022/07/02 03:00:45;;;;;;;5.75;2.60;;;;;;;;;;5015030;28;20022;-80
2022/07/02 03:03:11;;;;;;;4.47;2.65;;;;;;;;;;5003940;28;20037;-81
2022/07/02 03:05:37;;;;;;;4.63;2.55;;;;;;;;;;4994680;28;20461;-80
2022/07/02 03:08:03;;;;;;;5.32;2.70;;;;;;;;;;4995823;28;20037;-80
2022/07/02 03:10:29;;;;;;;5.40;2.40;;;;;;;;;;4996307;28;20377;-81
2022/07/02 03:12:55;;;;;;;4.50;2.50;;;;;;;;;;4999183;28;20055;-80
2022/07/02 03:15:21;;;;;;;3.90;2.03;;;;;;;;;;4999313;28;20066;-79
2022/07/02 03:17:48;;;;;;;4.38;2.03;;;;;;;;;;4995625;28;20504;-80
2022/07/02 03:20:14;;;;;;;4.47;2.40;;;;;;;;;;4995672;28;20105;-80
2022/07/02 03:22:40;;;;;;;5.55;2.25;;;;;;;;;;4994714;28;20053;-80
2022/07/02 03:25:07;;;;;;;4.50;2.15;;;;;;;;;;4995669;28;20022;-80
2022/07/02 03:27:33;;;;;;;4.55;2.50;;;;;;;;;;4993630;28;20057;-80
2022/07/02 03:29:59;;;;;;;4.30;2.40;;;;;;;;;;4994088;28;20608;-80
2022/07/02 03:32:28;;;;;;;4.60;2.55;;;;;;;;;;4993990;28;20049;-79
2022/07/02 03:34:54;;;;;;;4.82;2.83;;;;;;;;;;5014722;28;20088;-80
2022/07/02 03:37:23;;;;;;;4.10;2.10;;;;;;;;;;5015876;28;20021;-81
2022/07/02 03:39:49;;;;;;;4.93;2.15;;;;;;;;;;4997524;28;20069;-80
2022/07/02 03:42:15;;;;;;;4.40;1.90;;;;;;;;;;4993433;28;20027;-81
2022/07/02 03:44:41;;;;;;;4.20;1.88;;;;;;;;;;4976348;28;20490;-80
2022/07/02 03:47:07;;;;;;;4.50;1.90;;;;;;;;;;4988419;28;20030;-81
2022/07/02 03:49:33;;;;;;;4.32;2.20;;;;;;;;;;4993987;28;20037;-80
2022/07/02 03:51:59;;;;;;;3.58;1.80;;;;;;;;;;4994737;28;20097;-81
2022/07/02 03:54:25;;;;;;;4.20;1.98;;;;;;;;;;5003378;28;20468;-80
2022/07/02 03:56:51;;;;;;;4.22;1.80;;;;;;;;;;5005301;28;20053;-80
2022/07/02 03:59:17;;;;;;;4.93;2.08;;;;;;;;;;4997199;28;20034;-80
2022/07/02 04:01:43;;;;;;;4.10;1.90;;;;;;;;;;4995143;28;20468;-79
2022/07/02 04:04:09;;;;;;;4.75;2.20;;;;;;;;;;5009002;28;20029;-79
2022/07/02 04:06:35;;;;;;;4.10;2.33;;;;;;;;;;5012938;28;20021;-82
2022/07/02 04:09:02;;;;;;;4.53;2.00;;;;;;;;;;5014745;28;20507;-80
2022/07/02 04:11:28;;;;;;;5.07;2.15;;;;;;;;;;4993063;28;20037;-80
2022/07/02 04:13:54;;;;;;;3.90;2.10;;;;;;;;;;4987936;28;20027;-80
2022/07/02 04:16:20;;;;;;;4.28;2.10;;;;;;;;;;4974540;28;20023;-79
2022/07/02 04:18:46;;;;;;;3.80;1.90;;;;;;;;;;4993588;28;20022;-80
2022/07/02 04:21:12;;;;;;;4.00;1.95;;;;;;;;;;4993816;28;20118;-79
2022/07/02 04:23:38;;;;;;;5.55;1.92;;;;;;;;;;4987556;28;20130;-77
2022/07/02 04:26:05;;;;;;;4.10;2.15;;;;;;;;;;4993155;28;20054;-79
2022/07/02 04:28:31;;;;;;;4.50;2.00;;;;;;;;;;4979765;28;20026;-79
2022/07/02 04:30:57;;;;;;;4.30;2.10;;;;;;;;;;4992897;28;20042;-79
2022/07/02 04:33:23;;;;;;;3.92;1.83;;;;;;;;;;4993183;28;20065;-79
2022/07/02 04:35:49;;;;;;;3.80;1.85;;;;;;;;;;5003475;28;20046;-79
2022/07/02 04:38:15;;;;;;;3.85;1.77;;;;;;;;;;4992076;28;20034;-80
2022/07/02 04:40:41;;;;;;;5.05;1.70;;;;;;;;;;4981446;28;20034;-79
2022/07/02 04:43:07;;;;;;;4.10;1.60;;;;;;;;;;4992973;28;20377;-79
2022/07/02 04:45:33;;;;;;;3.65;1.80;;;;;;;;;;4991754;28;20026;-80
2022/07/02 04:47:59;;;;;;;4.03;1.88;;;;;;;;;;5002470;28;20121;-79
2022/07/02 04:50:26;;;;;;;5.50;1.80;;;;;;;;;;5012517;28;20460;-80
2022/07/02 04:52:52;;;;;;;5.55;1.95;;;;;;;;;;5014480;28;20092;-80
2022/07/02 04:55:18;;;;;;;4.28;2.00;;;;;;;;;;5004442;28;20677;-80
2022/07/02 04:57:44;;;;;;;3.40;1.52;;;;;;;;;;5007931;28;20109;-78
2022/07/02 05:00:10;;;;;;;5.03;2.03;;;;;;;;;;5003454;28;20026;-79
2022/07/02 05:02:37;;;;;;;4.70;2.10;;;;;;;;;;5002323;28;20034;-79
2022/07/02 05:05:03;;;;;;;4.10;1.92;;;;;;;;;;5012669;28;20029;-79
2022/07/02 05:07:30;;;;;;;4.03;1.80;;;;;;;;;;5011474;28;20057;-80
2022/07/02 05:09:57;;;;;;;4.88;1.90;;;;;;;;;;5007122;28;20072;-76
2022/07/02 05:12:24;;;;;;;3.95;1.83;;;;;;;;;;5013422;28;20109;-80
2022/07/02 05:14:51;;;;;;;3.88;1.85;;;;;;;;;;4997793;28;20042;-80
2022/07/02 05:17:17;;;;;;;4.13;1.75;;;;;;;;;;5001646;28;20029;-80
2022/07/02 05:19:44;;;;;;;4.38;1.70;;;;;;;;;;5015767;28;20033;-78
2022/07/02 05:22:10;;;;;;;3.60;1.60;;;;;;;;;;4997244;28;20037;-80
2022/07/02 05:24:36;;;;;;;4.20;1.90;;;;;;;;;;4996443;28;20034;-79
2022/07/02 05:27:02;;;;;;;3.80;1.73;;;;;;;;;;4998144;28;20067;-78
2022/07/02 05:29:28;;;;;;;3.28;1.40;;;;;;;;;;5015921;28;20045;-79
2022/07/02 05:31:54;;;;;;;3.22;1.58;;;;;;;;;;5003248;28;20022;-78
2022/07/02 05:34:20;;;;;;;3.83;1.70;;;;;;;;;;4995664;28;20070;-79
2022/07/02 05:36:47;;;;;;;4.03;1.98;;;;;;;;;;4994805;28;20057;-79
2022/07/02 05:39:13;;;;;;;3.50;1.60;;;;;;;;;;4995732;28;20061;-79
2022/07/02 05:41:39;;;;;;;3.30;1.80;;;;;;;;;;5002376;28;20113;-78
2022/07/02 05:44:05;;;;;;;5.80;1.90;;;;;;;;;;5009617;28;20023;-79
2022/07/02 05:46:31;;;;;;;5.15;2.00;;;;;;;;;;4994710;28;20038;-79
2022/07/02 05:48:57;;;;;;;3.85;1.73;;;;;;;;;;4999860;28;20030;-78
2022/07/02 05:51:23;;;;;;;4.00;1.70;;;;;;;;;;4996082;28;20030;-78
2022/07/02 05:53:50;;;;;;;3.88;1.80;;;;;;;;;;4995430;28;20101;-80
2022/07/02 05:56:16;;;;;;;4.20;1.90;;;;;;;;;;4997803;28;20101;-79
2022/07/02 05:58:42;;;;;;;3.90;1.80;;;;;;;;;;4997797;28;20085;-79
2022/07/02 06:01:08;;;;;;;4.65;1.77;;;;;;;;;;4995273;28;20113;-77
2022/07/02 06:03:34;;;;;;;4.45;1.80;;;;;;;;;;4989474;28;20034;-78
2022/07/02 06:08:44;;;;;;;3.90;1.80;;;;;;;;;;4998697;28;20392;-81
2022/07/02 06:11:11;;;;;;;3.85;1.90;;;;;;;;;;4997400;28;20121;-77
2022/07/02 06:13:37;;;;;;;4.72;2.10;;;;;;;;;;5000103;28;20189;-78
2022/07/02 06:16:03;;;;;;;4.30;1.77;;;;;;;;;;4994263;28;20027;-78
2022/07/02 06:18:29;;;;;;;4.93;1.98;;;;;;;;;;4995187;28;20027;-78
2022/07/02 06:20:55;;;;;;;3.67;1.88;;;;;;;;;;4994738;28;20069;-79
2022/07/02 06:23:21;;;;;;;3.88;2.10;;;;;;;;;;4996317;28;20030;-77
2022/07/02 06:25:48;;;;;;;5.20;2.03;;;;;;;;;;4993416;28;20046;-77
2022/07/02 06:28:14;;;;;;;4.60;2.13;;;;;;;;;;5005685;28;20057;-79
2022/07/02 06:30:40;;;;;;;4.82;1.80;;;;;;;;;;4995436;28;20077;-77
2022/07/02 06:33:06;;;;;;;3.60;1.80;;;;;;;;;;4993437;28;20502;-79
2022/07/02 06:35:32;;;;;;;3.90;1.70;;;;;;;;;;4994559;28;20042;-79
2022/07/02 06:37:58;;;;;;;5.25;1.88;;;;;;;;;;4999456;28;20404;-79
2022/07/02 06:40:24;;;;;;;4.95;2.10;;;;;;;;;;4996265;28;20373;-78
2022/07/02 06:42:50;;;;;;;4.55;2.15;;;;;;;;;;4996026;28;20026;-79
2022/07/02 06:45:16;;;;;;;6.65;2.10;;;;;;;;;;5012319;28;20030;-77
2022/07/02 06:47:43;;;;;;;4.22;2.28;;;;;;;;;;5013788;28;20431;-78
2022/07/02 06:50:10;;;;;;;4.30;1.95;;;;;;;;;;5008199;28;20026;-76
2022/07/02 06:52:36;;;;;;;8.00;2.38;;;;;;;;;;4979358;28;20038;-81
2022/07/02 06:55:03;;;;;;;5.00;2.20;;;;;;;;;;4988942;28;20069;-78
2022/07/02 06:57:29;;;;;;;5.88;2.00;;;;;;;;;;5003266;28;20061;-80
2022/07/02 06:59:55;;;;;;;4.38;2.00;;;;;;;;;;5014186;28;20488;-80
2022/07/02 07:02:22;;;;;;;4.15;2.03;;;;;;;;;;5002170;28;20026;-80
2022/07/02 07:04:48;;;;;;;4.05;2.15;;;;;;;;;;5016289;28;20034;-80
2022/07/02 07:07:14;;;;;;;6.07;2.28;;;;;;;;;;4995908;28;20113;-80
2022/07/02 07:09:40;;;;;;;4.00;1.88;;;;;;;;;;4994431;28;20030;-79
2022/07/02 07:12:06;;;;;;;4.05;2.00;;;;;;;;;;4995119;28;20026;-79
2022/07/02 07:14:35;;;;;;;4.53;2.00;;;;;;;;;;4995914;28;20029;-80
2022/07/02 07:17:02;;;;;;;3.60;1.77;;;;;;;;;;4987560;28;20037;-80
2022/07/02 07:19:28;;;;;;;5.22;2.00;;;;;;;;;;5016234;28;20037;-79
2022/07/02 07:21:54;;;;;;;4.45;2.30;;;;;;;;;;5002459;28;20026;-80
2022/07/02 07:24:20;;;;;;;4.03;1.95;;;;;;;;;;4995810;28;20105;-79
2022/07/02 07:26:46;;;;;;;4.80;2.40;;;;;;;;;;4993461;28;20030;-80
2022/07/02 07:29:12;;;;;;;4.00;2.08;;;;;;;;;;5002173;28;20473;-80
2022/07/02 07:31:39;;;;;;;3.95;2.10;;;;;;;;;;4994890;28;20031;-80
2022/07/02 07:34:05;;;;;;;5.47;2.30;;;;;;;;;;4993968;28;20046;-79
2022/07/02 07:36:32;;;;;;;3.90;2.20;;;;;;;;;;4994307;28;20547;-79
2022/07/02 07:38:59;;;;;;;4.85;1.73;;;;;;;;;;4987903;28;20022;-79
2022/07/02 07:41:25;;;;;;;3.95;2.00;;;;;;;;;;4991909;28;20054;-79
2022/07/02 07:43:52;;;;;;;4.15;1.92;;;;;;;;;;4994302;28;20060;-77
2022/07/02 07:46:19;;;;;;;4.65;2.05;;;;;;;;;;4992967;28;20022;-76
2022/07/02 07:48:45;;;;;;;4.13;1.95;;;;;;;;;;4991495;28;20022;-76
2022/07/02 07:51:11;;;;;;;4.45;2.10;;;;;;;;;;4991790;28;20592;-77
2022/07/02 07:53:37;;;;;;;4.35;1.80;;;;;;;;;;4989136;28;20081;-76
2022/07/02 07:56:03;;;;;;;3.53;1.98;;;;;;;;;;4990115;28;20022;-77
2022/07/02 07:58:29;;;;;;;5.05;1.85;;;;;;;;;;4975223;28;20031;-76
2022/07/02 08:00:55;;;;;;;7.10;2.90;;;;;;;;;;4977549;28;20018;-77
2022/07/02 08:03:22;;;;;;;4.25;2.40;;;;;;;;;;4992510;28;20027;-77
2022/07/02 08:05:53;;;;;;;3.72;1.83;;;;;;;;;;4984577;28;20054;-77
2022/07/02 08:08:19;;;;;;;5.53;2.27;;;;;;;;;;5000866;28;20026;-76
2022/07/02 08:10:45;;;;;;;3.80;1.77;;;;;;;;;;5009884;28;20026;-78
2022/07/02 08:13:11;;;;;;;3.75;1.75;;;;;;;;;;4991787;28;20151;-77
2022/07/02 08:15:37;;;;;;;3.30;1.65;;;;;;;;;;4991609;28;20471;-77
2022/07/02 08:18:04;;;;;;;3.47;1.60;;;;;;;;;;4995221;28;20105;-77
2022/07/02 08:20:30;;;;;;;4.18;2.10;;;;;;;;;;4984647;28;20052;-77
2022/07/02 08:22:56;;;;;;;3.55;1.80;;;;;;;;;;4986228;28;20036;-78
2022/07/02 08:25:22;;;;;;;3.90;1.65;;;;;;;;;;4988615;28;20097;-77
2022/07/02 08:27:48;;;;;;;3.63;1.80;;;;;;;;;;4990361;28;20038;-76
2022/07/02 08:30:14;;;;;;;3.60;1.73;;;;;;;;;;4992445;28;20456;-78
2022/07/02 08:32:40;;;;;;;3.85;1.80;;;;;;;;;;4991893;28;20022;-77
2022/07/02 08:35:06;;;;;;;4.07;1.60;;;;;;;;;;4991408;28;20046;-77
2022/07/02 08:37:33;;;;;;;3.85;1.88;;;;;;;;;;4991575;28;20022;-77
2022/07/02 08:39:59;;;;;;;3.55;1.48;;;;;;;;;;4992018;28;20026;-77
2022/07/02 08:42:26;;;;;;;3.70;1.77;;;;;;;;;;4991193;28;20038;-79
2022/07/02 08:44:53;;;;;;;3.55;1.67;;;;;;;;;;4992073;28;20041;-76
2022/07/02 08:47:19;;;;;;;3.60;1.50;;;;;;;;;;4997851;28;20080;-77
2022/07/02 08:49:46;;;;;;;3.53;1.63;;;;;;;;;;5008146;28;20104;-76
2022/07/02 08:52:14;;;;;;;3.38;1.58;;;;;;;;;;4992064;28;20052;-78
2022/07/02 08:54:40;;;;;;;10.75;2.42;;;;;;;;;;4992273;28;20042;-77
2022/07/02 08:57:07;;;;;;;3.58;1.65;;;;;;;;;;4990473;28;20457;-76
2022/07/02 08:59:33;;;;;;;4.07;2.13;;;;;;;;;;4973077;28;20026;-76
2022/07/02 09:02:01;;;;;;;4.80;1.80;;;;;;;;;;4985546;28;20053;-77
2022/07/02 09:04:27;;;;;;;4.18;2.00;;;;;;;;;;4991906;28;20109;-76
2022/07/02 09:06:57;;;;;;;5.70;1.83;;;;;;;;;;4983842;28;20549;-77
2022/07/02 09:09:27;;;;;;;4.35;1.70;;;;;;;;;;5011970;28;20106;-77
2022/07/02 09:11:54;;;;;;;3.72;1.70;;;;;;;;;;4996365;28;20038;-77
2022/07/02 09:14:20;;;;;;;4.03;1.80;;;;;;;;;;4992093;28;20047;-77
2022/07/02 09:16:50;;;;;;;2.97;1.58;;;;;;;;;;4989404;28;20485;-78
2022/07/02 09:19:17;;;;;;;3.58;1.77;;;;;;;;;;4989514;28;20026;-77
2022/07/02 09:21:50;;;;;;;3.97;1.75;;;;;;;;;;4991955;28;20030;-78
2022/07/02 09:24:28;;;;;;;3.67;1.70;;;;;;;;;;4991926;28;20026;-77
2022/07/02 09:27:01;;;;;;;4.43;1.98;;;;;;;;;;4990307;28;20035;-77
2022/07/02 09:29:27;;;;;;;4.45;2.00;;;;;;;;;;4991798;28;20050;-77
2022/07/02 09:31:53;;;;;;;4.90;1.98;;;;;;;;;;4991682;28;20022;-76
2022/07/02 09:34:26;;;;;;;3.40;1.80;;;;;;;;;;4991548;28;20540;-77
2022/07/02 09:36:52;;;;;;;4.35;1.80;;;;;;;;;;4985119;28;20073;-76
2022/07/02 09:39:28;;;;;;;3.60;1.67;;;;;;;;;;4989325;28;20447;-77
2022/07/02 09:41:54;;;;;;;3.22;1.67;;;;;;;;;;4987319;28;20029;-76
2022/07/02 09:44:20;;;;;;;4.00;1.83;;;;;;;;;;4991381;28;20377;-76
2022/07/02 09:46:46;;;;;;;3.70;1.80;;;;;;;;;;4989453;28;20088;-77
2022/07/02 09:49:15;;;;;;;5.10;1.90;;;;;;;;;;4991465;28;20023;-77
2022/07/02 09:51:48;;;;;;;3.53;1.90;;;;;;;;;;4988316;28;20053;-77
2022/07/02 09:54:18;;;;;;;4.53;1.90;;;;;;;;;;4990991;28;20023;-78
2022/07/02 09:56:50;;;;;;;4.18;1.70;;;;;;;;;;4989006;28;20062;-76
2022/07/02 09:59:16;;;;;;;3.60;1.98;;;;;;;;;;4993847;28;20030;-76
2022/07/02 10:01:44;;;;;;;3.83;2.03;;;;;;;;;;4993732;28;20026;-76
2022/07/02 10:04:10;;;;;;;3.72;2.00;;;;;;;;;;4993179;28;20040;-76
2022/07/02 10:06:36;;;;;;;4.15;1.90;;;;;;;;;;4992354;28;20030;-76
2022/07/02 10:09:03;;;;;;;4.18;2.08;;;;;;;;;;4994996;28;20034;-77
2022/07/02 10:11:29;;;;;;;4.30;2.00;;;;;;;;;;4994206;28;20030;-76
2022/07/02 10:13:56;;;;;;;4.82;2.00;;;;;;;;;;4992764;28;20030;-77
2022/07/02 10:16:23;;;;;;;4.28;2.17;;;;;;;;;;5002928;28;20018;-77
2022/07/02 10:18:49;;;;;;;4.30;1.85;;;;;;;;;;4998368;28;20101;-77
2022/07/02 10:21:16;;;;;;;4.22;2.05;;;;;;;;;;4996213;28;20027;-76
2022/07/02 10:23:44;;;;;;;4.70;2.05;;;;;;;;;;4993333;28;20034;-77
2022/07/02 10:26:13;;;;;;;3.75;1.90;;;;;;;;;;4994410;28;21481;-78
2022/07/02 10:28:39;;;;;;;3.85;1.70;;;;;;;;;;4998019;28;20513;-77
2022/07/02 10:31:11;;;;;;;3.80;1.92;;;;;;;;;;5013925;28;20112;-76
2022/07/02 10:33:40;;;;;;;3.72;1.88;;;;;;;;;;5012401;28;20026;-75
2022/07/02 10:36:09;;;;;;;4.60;2.00;;;;;;;;;;4994047;28;20034;-75
2022/07/02 10:38:39;;;;;;;4.55;2.28;;;;;;;;;;4993450;28;20141;-77
2022/07/02 10:41:07;;;;;;;3.92;2.10;;;;;;;;;;4994391;28;20026;-77
2022/07/02 10:43:34;;;;;;;3.80;2.00;;;;;;;;;;4993439;28;20054;-77
2022/07/02 10:46:03;;;;;;;3.95;1.92;;;;;;;;;;5010227;28;20037;-76
2022/07/02 10:48:29;;;;;;;4.00;1.98;;;;;;;;;;5000652;28;20037;-76
2022/07/02 10:50:59;;;;;;;4.82;1.90;;;;;;;;;;4993066;28;20026;-77
2022/07/02 10:53:27;;;;;;;4.38;2.30;;;;;;;;;;4989871;28;20023;-77
2022/07/02 10:55:57;;;;;;;4.40;2.10;;;;;;;;;;4992470;28;20022;-77
2022/07/02 10:58:24;;;;;;;4.88;2.35;;;;;;;;;;4994366;28;20033;-77
2022/07/02 11:00:51;;;;;;;4.40;2.45;;;;;;;;;;4992207;28;20088;-77
2022/07/02 11:03:19;;;;;;;4.00;1.92;;;;;;;;;;5006635;28;20022;-77
2022/07/02 11:05:56;;;;;;;4.32;2.22;;;;;;;;;;5013470;28;20515;-76
2022/07/02 11:08:31;;;;;;;4.57;2.25;;;;;;;;;;4986662;28;20061;-76
2022/07/02 11:10:57;;;;;;;4.95;2.15;;;;;;;;;;5006115;28;20440;-78
2022/07/02 11:13:23;;;;;;;4.35;2.33;;;;;;;;;;4993050;28;20077;-77
2022/07/02 11:15:49;;;;;;;5.05;1.90;;;;;;;;;;4993877;28;20034;-77
2022/07/02 11:18:15;;;;;;;4.13;2.10;;;;;;;;;;4984247;28;20027;-77
2022/07/02 11:20:42;;;;;;;3.63;1.92;;;;;;;;;;4974384;28;20545;-77
2022/07/02 11:23:08;;;;;;;3.50;1.95;;;;;;;;;;5005025;28;20523;-77
2022/07/02 11:25:34;;;;;;;4.07;2.10;;;;;;;;;;4987428;28;20130;-77
2022/07/02 11:28:02;;;;;;;3.83;2.15;;;;;;;;;;4988157;28;20539;-78
2022/07/02 11:30:30;;;;;;;4.13;2.10;;;;;;;;;;4993373;28;20035;-78
2022/07/02 11:32:57;;;;;;;3.40;1.77;;;;;;;;;;5003866;28;20018;-77
2022/07/02 11:35:23;;;;;;;5.25;1.90;;;;;;;;;;5002559;28;20073;-79
2022/07/02 11:37:49;;;;;;;4.38;2.38;;;;;;;;;;4985724;28;20127;-77
2022/07/02 11:40:19;;;;;;;3.72;2.28;;;;;;;;;;4987561;28;20022;-79
2022/07/02 11:42:45;;;;;;;3.78;2.03;;;;;;;;;;4993468;28;20077;-77
2022/07/02 11:45:11;;;;;;;3.92;2.33;;;;;;;;;;4999131;28;20065;-79
2022/07/02 11:47:43;;;;;;;4.63;2.05;;;;;;;;;;4992208;28;20106;-78
2022/07/02 11:50:10;;;;;;;3.80;2.00;;;;;;;;;;4985876;28;20042;-78
2022/07/02 11:52:36;;;;;;;3.80;2.00;;;;;;;;;;4977598;28;20026;-77
2022/07/02 11:55:03;;;;;;;3.55;1.95;;;;;;;;;;4991278;28;20208;-78
2022/07/02 11:57:32;;;;;;;3.60;2.00;;;;;;;;;;4999888;28;20044;-77
2022/07/02 11:59:58;;;;;;;6.30;2.90;;;;;;;;;;5002227;28;20092;-81
2022/07/02 12:02:24;;;;;;;5.68;2.10;;;;;;;;;;4992906;28;20034;-77
2022/07/02 12:04:50;;;;;;;14.93;4.15;;;;;;;;;;4996684;28;20057;-77
2022/07/02 12:07:16;;;;;;;3.80;1.98;;;;;;;;;;5012932;28;20036;-78
2022/07/02 12:09:42;;;;;;;4.00;1.80;;;;;;;;;;4997259;28;20492;-78
2022/07/02 12:12:08;;;;;;;3.78;1.70;;;;;;;;;;4987527;28;20161;-77
2022/07/02 12:14:34;;;;;;;3.55;1.80;;;;;;;;;;5002732;28;20026;-78
2022/07/02 12:17:00;;;;;;;5.82;2.58;;;;;;;;;;5002281;28;20045;-77
2022/07/02 12:19:30;;;;;;;3.65;1.80;;;;;;;;;;4990166;28;20484;-77
2022/07/02 12:21:56;;;;;;;3.35;1.65;;;;;;;;;;4990424;28;20031;-78
2022/07/02 12:24:24;;;;;;;3.72;1.73;;;;;;;;;;4994358;28;20117;-77
2022/07/02 12:26:54;;;;;;;3.53;1.73;;;;;;;;;;4984612;28;20023;-77
2022/07/02 12:32:13;;;;;;;3.55;1.70;;;;;;;;;;5002674;28;20076;-78
2022/07/02 12:34:41;;;;;;;3.10;1.40;;;;;;;;;;5005367;28;20050;-78
2022/07/02 12:37:08;;;;;;;3.28;1.48;;;;;;;;;;4989007;28;20027;-78
2022/07/02 12:39:42;;;;;;;2.72;1.30;;;;;;;;;;4987919;28;20097;-78
2022/07/02 12:42:18;;;;;;;5.03;1.45;;;;;;;;;;4999461;28;20109;-78
2022/07/02 12:44:55;;;;;;;3.40;1.48;;;;;;;;;;4995368;28;20082;-78
2022/07/02 12:47:35;;;;;;;3.05;1.40;;;;;;;;;;4993547;28;20113;-79
2022/07/02 12:50:11;;;;;;;2.72;1.20;;;;;;;;;;4986935;28;20061;-78
2022/07/02 12:52:47;;;;;;;3.40;1.60;;;;;;;;;;4990036;28;20041;-78
2022/07/02 12:55:24;;;;;;;3.65;1.80;;;;;;;;;;4989322;28;20041;-78
2022/07/02 12:57:51;;;;;;;3.42;1.50;;;;;;;;;;4991297;28;20081;-77
2022/07/02 13:00:17;;;;;;;3.85;1.58;;;;;;;;;;4989401;28;20393;-78
2022/07/02 13:02:43;;;;;;;3.35;1.30;;;;;;;;;;5007270;28;20018;-79
2022/07/02 13:05:09;;;;;;;4.18;1.73;;;;;;;;;;5000299;28;20030;-79
2022/07/02 13:07:35;;;;;;;3.20;1.45;;;;;;;;;;4989090;28;20552;-78
2022/07/02 13:10:01;;;;;;;3.40;1.50;;;;;;;;;;4997475;28;20034;-78
2022/07/02 13:12:27;;;;;;;3.40;1.48;;;;;;;;;;5001209;28;20302;-78
2022/07/02 13:14:53;;;;;;;3.50;1.27;;;;;;;;;;5006039;28;20150;-78
2022/07/02 13:17:19;;;;;;;3.25;1.45;;;;;;;;;;4991278;28;20023;-78
2022/07/02 13:19:45;;;;;;;3.40;1.40;;;;;;;;;;4990504;28;20019;-78
2022/07/02 13:22:15;;;;;;;2.65;1.10;;;;;;;;;;4999297;28;20056;-77
2022/07/02 13:24:42;;;;;;;3.60;1.52;;;;;;;;;;5004322;28;20022;-79
2022/07/02 13:27:08;;;;;;;3.30;1.48;;;;;;;;;;4990047;28;20098;-78
2022/07/02 13:29:34;;;;;;;3.20;1.30;;;;;;;;;;4991464;28;20152;-79
2022/07/02 13:32:01;;;;;;;4.45;1.50;;;;;;;;;;5008321;28;20496;-78
2022/07/02 13:34:27;;;;;;;3.60;1.63;;;;;;;;;;5001509;28;20077;-78
2022/07/02 13:36:53;;;;;;;2.90;1.30;;;;;;;;;;4994387;28;20515;-78
2022/07/02 13:39:20;;;;;;;3.45;1.58;;;;;;;;;;4994226;28;20034;-81
2022/07/02 13:41:46;;;;;;;5.68;2.10;;;;;;;;;;4994364;28;20028;-77
2022/07/02 13:44:12;;;;;;;4.32;1.52;;;;;;;;;;4979655;28;20094;-77
2022/07/02 13:46:38;;;;;;;8.55;2.40;;;;;;;;;;4984479;28;20054;-77
2022/07/02 13:49:04;;;;;;;4.82;1.77;;;;;;;;;;4993604;28;20496;-77
2022/07/02 13:51:30;;;;;;;3.30;1.58;;;;;;;;;;4998930;28;20034;-76
2022/07/02 13:53:56;;;;;;;5.53;1.90;;;;;;;;;;4992867;28;20277;-78
2022/07/02 13:56:22;;;;;;;3.60;1.48;;;;;;;;;;4992373;28;20045;-77
2022/07/02 13:58:48;;;;;;;5.05;1.88;;;;;;;;;;5011793;28;20391;-77
2022/07/02 14:01:14;;;;;;;3.22;1.50;;;;;;;;;;5012532;28;20530;-78
2022/07/02 14:03:40;;;;;;;5.28;1.92;;;;;;;;;;5003896;28;20100;-79
2022/07/02 14:06:07;;;;;;;3.10;1.40;;;;;;;;;;4995734;28;20031;-78
2022/07/02 14:08:33;;;;;;;4.88;1.58;;;;;;;;;;5000349;28;20026;-77
2022/07/02 14:10:59;;;;;;;4.03;1.45;;;;;;;;;;4992497;28;20030;-78
2022/07/02 14:13:25;;;;;;;4.32;1.40;;;;;;;;;;4994461;28;20041;-78
2022/07/02 14:15:51;;;;;;;5.28;1.95;;;;;;;;;;5007735;28;20021;-78
2022/07/02 14:18:17;;;;;;;3.60;1.70;;;;;;;;;;4994918;28;20015;-78
2022/07/02 14:20:43;;;;;;;4.10;1.60;;;;;;;;;;4992117;28;20022;-77
2022/07/02 14:23:09;;;;;;;3.72;1.65;;;;;;;;;;4994780;28;20477;-78
2022/07/02 14:25:35;;;;;;;5.97;1.92;;;;;;;;;;5005265;28;20488;-78
2022/07/02 14:28:01;;;;;;;6.60;1.85;;;;;;;;;;5009378;28;20023;-78
2022/07/02 14:30:27;;;;;;;5.03;2.00;;;;;;;;;;5001377;28;20036;-78
2022/07/02 14:32:53;;;;;;;5.63;1.90;;;;;;;;;;4999014;28;20113;-77
2022/07/02 14:35:19;;;;;;;3.58;1.50;;;;;;;;;;4995762;28;20520;-78
2022/07/02 14:37:45;;;;;;;4.50;1.70;;;;;;;;;;4992449;28;20101;-80
2022/07/02 14:40:11;;;;;;;4.25;1.70;;;;;;;;;;4985224;28;20103;-80
2022/07/02 14:42:37;;;;;;;3.17;1.50;;;;;;;;;;5001664;28;20038;-81
2022/07/02 14:45:04;;;;;;;3.22;1.63;;;;;;;;;;4996207;28;20034;-80
2022/07/02 14:47:30;;;;;;;3.63;1.75;;;;;;;;;;4997988;28;20456;-79
2022/07/02 14:49:56;;;;;;;3.28;1.70;;;;;;;;;;5003728;28;20384;-80
2022/07/02 14:52:22;;;;;;;4.20;1.75;;;;;;;;;;4996637;28;20467;-81
2022/07/02 14:54:48;;;;;;;3.22;1.60;;;;;;;;;;4995555;28;20099;-80
2022/07/02 14:57:14;;;;;;;3.83;1.77;;;;;;;;;;4995010;28;20018;-80
2022/07/02 14:59:41;;;;;;;3.45;1.77;;;;;;;;;;5000311;28;20476;-80
2022/07/02 15:02:12;;;;;;;2.95;1.40;;;;;;;;;;4996496;28;20398;-80